Etusivu
METAR-TAF:

METAR-TAF

Lentoasemat :

Bergenin lentoasema

Bergen, Norja

Leveyspiiri: 60-17N, Pituuspiiri: 005-14E, korkeus merenpinnasta: 5 m

Tämänhetkinen sää

Tämä raportti tehtiin 32 minuuttia sitten, kello 09.20 UTC
Tuuli 2 kn idästä/koillisesta
Lämpötila 2°C
Kosteus 87%
Ilmanpaine 1010 hPa
Näkyvyys 10 km tai enemmän
ei pilviä alle 1500 m:ssä eikä cumulonimbus-pilviä

METAR: ENBR 170920Z 07002KT CAVOK 02/00 Q1010 NOSIG RMK WIND 1200FT 32005KT

Aika: 10:52 (09:52 UTC)

Sääennuste

Ennuste voimassa 17. päivästä klo 06 UTC - 18. päivään klo 06 UTC
Tuuli 5 kn idästä/koillisesta
Näkyvyys 10 km tai enemmän
Hajanaisia pilviä 4000 ft:n korkeudessa

TAF: ENBR 1706/1806 06005KT 9999 SCT040

Säähavainnot ja -ennusteet yli 4000 lentoasemalta (METAR- ja TAF-raportit).

Käytössä olevat sääasemat on merkitty karttaan keltaisilla ja punaisilla pisteillä.

Aseta hiiri pisteen päälle nähdäksesi sääaseman nimen.

Klikkaa sitten nähdäksesi säähavainnot ja -ennusteet.

Kartan vaihtaminen: klikkaa mustalla rastilla varustettuja vihreitä pisteitä, niin voit zoomata sisään; viivalla varustettua vihreää pistettä, niin voit zoomata ulos tai vihreitä nuolia, niin pääset viereisille kartoille.


METAR-TAF: